Time;durP1;ratioP1;P1;durP2;ratioP2;P2;SDS_P1;SDS_P2;PMS_P1;PMS_P2;Temp;Humidity;BMP_temperature;BMP_pressure;BME280_temperature;BME280_humidity;BME280_pressure;Samples;Min_cycle;Max_cycle;Signal;HPM_P1;HPM_P2
2024/03/23 00:00:34;;;;;;;8.53;6.07;;;8.80;99.90;8.70;99818.00;;;;4878048;28;88929;-65
2024/03/23 00:03:01;;;;;;;11.77;6.40;;;8.80;99.90;8.70;99808.00;;;;4892632;28;88048;-65
2024/03/23 00:05:28;;;;;;;12.30;8.30;;;8.80;99.90;8.70;99800.00;;;;4873605;28;102226;-66
2024/03/23 00:07:58;;;;;;;12.20;7.60;;;8.90;99.90;8.60;99801.00;;;;4882583;28;119186;-65
2024/03/23 00:10:25;;;;;;;9.17;7.00;;;8.70;99.90;8.60;99794.00;;;;4882016;28;88088;-65
2024/03/23 00:12:52;;;;;;;10.23;6.60;;;8.70;99.90;8.50;99810.00;;;;4881662;28;87748;-65
2024/03/23 00:15:20;;;;;;;11.40;6.63;;;8.60;99.90;8.50;99794.00;;;;4877851;28;91617;-64
2024/03/23 00:17:47;;;;;;;9.67;5.87;;;8.60;99.90;8.50;99788.00;;;;4874029;28;116554;-64
2024/03/23 00:20:14;;;;;;;9.93;6.60;;;8.90;99.90;8.50;99785.00;;;;4879416;28;106368;-65
2024/03/23 00:22:41;;;;;;;6.53;5.67;;;8.60;99.90;8.40;99788.00;;;;4879369;28;87304;-64
2024/03/23 00:25:08;;;;;;;10.37;6.67;;;8.60;99.90;8.50;99786.00;;;;4877999;28;112597;-64
2024/03/23 00:27:35;;;;;;;9.23;6.43;;;8.60;99.90;8.50;99790.00;;;;4875305;28;116429;-64
2024/03/23 00:30:03;;;;;;;9.83;6.60;;;8.60;99.90;8.50;99789.00;;;;4878204;28;110153;-65
2024/03/23 00:32:31;;;;;;;12.90;7.63;;;8.60;99.90;8.60;99785.00;;;;4877626;28;88151;-64
2024/03/23 00:34:58;;;;;;;12.43;7.63;;;8.70;99.90;8.60;99788.00;;;;4880447;28;89937;-64
2024/03/23 00:37:25;;;;;;;11.30;7.43;;;8.70;99.90;8.60;99788.00;;;;4878761;28;98683;-65
2024/03/23 00:39:52;;;;;;;12.73;7.83;;;8.70;99.90;8.60;99783.00;;;;4880711;28;88247;-64
2024/03/23 00:42:19;;;;;;;13.50;8.67;;;8.70;99.90;8.70;99781.00;;;;4881991;28;88446;-67
2024/03/23 00:44:47;;;;;;;12.97;7.87;;;8.70;99.90;8.80;99774.00;;;;4878275;28;116974;-67
2024/03/23 00:47:14;;;;;;;12.20;6.87;;;8.80;99.90;8.80;99767.00;;;;4878420;28;88068;-66
2024/03/23 00:49:41;;;;;;;14.93;8.70;;;8.90;99.90;8.90;99767.00;;;;4876934;28;109725;-64
2024/03/23 00:52:07;;;;;;;19.87;9.70;;;9.00;99.90;8.90;99776.00;;;;4880483;28;109219;-65
2024/03/23 00:54:32;;;;;;;17.07;10.27;;;9.00;99.90;9.00;99772.00;;;;4877422;28;117400;-65
2024/03/23 00:56:58;;;;;;;14.87;9.40;;;9.10;99.90;9.00;99769.00;;;;4878330;28;118170;-64
2024/03/23 00:59:27;;;;;;;15.30;10.20;;;9.10;99.90;9.10;99771.00;;;;4879032;28;113025;-64
2024/03/23 01:01:53;;;;;;;16.33;11.23;;;9.10;99.90;9.10;99762.00;;;;4883341;28;88023;-66
2024/03/23 01:04:18;;;;;;;15.70;10.33;;;9.20;99.90;9.20;99770.00;;;;4874288;28;116499;-66
2024/03/23 01:06:44;;;;;;;15.60;8.93;;;9.30;99.90;9.20;99766.00;;;;4881068;28;118340;-65
2024/03/23 01:09:10;;;;;;;18.00;10.93;;;9.30;99.90;9.30;99760.00;;;;4885111;28;113937;-64
2024/03/23 01:11:36;;;;;;;12.73;8.83;;;9.30;99.90;9.30;99753.00;;;;4878667;28;88056;-66
2024/03/23 01:14:03;;;;;;;17.73;10.17;;;9.30;99.90;9.30;99747.00;;;;4883670;28;107245;-66
2024/03/23 01:16:28;;;;;;;14.57;9.23;;;9.30;99.90;9.40;99742.00;;;;4879741;28;87770;-65
2024/03/23 01:18:54;;;;;;;15.83;9.27;;;9.50;99.90;9.40;99730.00;;;;4876373;28;114899;-66
2024/03/23 01:21:20;;;;;;;16.67;9.67;;;9.50;99.90;9.40;99743.00;;;;4883720;28;108843;-65
2024/03/23 01:23:45;;;;;;;15.27;9.77;;;9.50;99.90;9.50;99732.00;;;;4879122;28;117354;-64
2024/03/23 01:26:11;;;;;;;15.37;9.73;;;9.50;99.90;9.50;99736.00;;;;4880699;28;88903;-65
2024/03/23 01:28:37;;;;;;;13.60;8.20;;;9.60;99.90;9.50;99731.00;;;;4880175;28;87623;-64
2024/03/23 01:31:03;;;;;;;15.60;10.30;;;9.60;99.90;9.50;99738.00;;;;4875458;28;88724;-65
2024/03/23 01:33:28;;;;;;;12.47;8.37;;;9.60;99.90;9.50;99726.00;;;;4879513;28;107786;-64
2024/03/23 01:35:54;;;;;;;14.13;9.63;;;9.60;99.90;9.50;99730.00;;;;4879006;28;116182;-65
2024/03/23 01:38:19;;;;;;;16.07;10.10;;;9.60;99.90;9.50;99719.00;;;;4878239;28;110468;-64
2024/03/23 01:40:46;;;;;;;14.73;9.33;;;9.60;99.90;9.50;99716.00;;;;4882607;28;106705;-64
2024/03/23 01:43:11;;;;;;;12.57;8.70;;;9.60;99.90;9.40;99714.00;;;;4880942;28;89174;-64
2024/03/23 01:45:38;;;;;;;15.13;9.87;;;9.50;99.90;9.30;99715.00;;;;4878010;28;117722;-64
2024/03/23 01:48:07;;;;;;;10.73;8.20;;;9.50;99.90;9.30;99718.00;;;;4883506;28;110024;-65
2024/03/23 01:50:33;;;;;;;12.03;8.10;;;9.40;99.90;9.30;99715.00;;;;4876457;28;101487;-65
2024/03/23 01:53:05;;;;;;;13.20;8.33;;;9.40;99.90;9.20;99706.00;;;;4885497;28;89649;-64
2024/03/23 01:55:34;;;;;;;15.53;8.23;;;9.30;99.90;9.20;99696.00;;;;4878626;28;88479;-65
2024/03/23 01:57:59;;;;;;;12.50;7.17;;;9.30;99.90;9.10;99702.00;;;;4882105;28;111077;-66
2024/03/23 02:00:27;;;;;;;14.83;8.67;;;9.20;99.90;9.10;99693.00;;;;4881653;28;107947;-66
2024/03/23 02:02:53;;;;;;;11.97;7.70;;;9.20;99.90;9.10;99677.00;;;;4877269;28;87844;-65
2024/03/23 02:05:19;;;;;;;15.27;7.87;;;9.10;99.90;9.10;99656.00;;;;4882982;28;101100;-65
2024/03/23 02:07:44;;;;;;;14.27;8.13;;;9.20;99.90;9.10;99644.00;;;;4877548;28;109216;-65
2024/03/23 02:10:13;;;;;;;17.17;9.43;;;9.20;99.90;9.10;99654.00;;;;4880874;28;107075;-66
2024/03/23 02:12:39;;;;;;;10.77;8.00;;;9.20;99.90;9.00;99678.00;;;;4880080;28;88836;-66
2024/03/23 02:15:05;;;;;;;15.43;10.00;;;9.20;99.90;9.00;99672.00;;;;4878714;28;117086;-65
2024/03/23 02:17:34;;;;;;;19.03;9.73;;;9.20;99.90;9.00;99659.00;;;;4878946;28;87752;-65
2024/03/23 02:20:01;;;;;;;20.43;9.33;;;9.20;99.90;9.00;99647.00;;;;4879183;28;88563;-65
2024/03/23 02:22:37;;;;;;;10.43;7.23;;;9.20;99.90;9.00;99638.00;;;;4877285;28;89138;-66
2024/03/23 02:25:04;;;;;;;12.57;7.80;;;9.10;99.90;8.90;99630.00;;;;4881675;28;101923;-65
2024/03/23 02:27:30;;;;;;;12.13;7.97;;;9.10;99.90;8.90;99634.00;;;;4878981;28;97305;-65
2024/03/23 02:29:56;;;;;;;12.23;8.50;;;9.00;99.90;8.90;99622.00;;;;4876488;28;107273;-65
2024/03/23 02:32:21;;;;;;;10.87;8.37;;;9.00;99.90;8.80;99618.00;;;;4870265;28;118259;-65
2024/03/23 02:34:47;;;;;;;11.67;7.73;;;8.90;99.90;8.80;99628.00;;;;4879833;28;117832;-65
2024/03/23 02:37:13;;;;;;;14.17;7.93;;;8.90;99.90;8.70;99635.00;;;;4877876;28;110003;-65
2024/03/23 02:39:38;;;;;;;12.53;7.57;;;8.80;99.90;8.70;99629.00;;;;4878497;28;108917;-66
2024/03/23 02:42:04;;;;;;;16.10;9.47;;;8.80;99.90;8.60;99621.00;;;;4877422;28;117561;-65
2024/03/23 02:44:30;;;;;;;14.63;8.87;;;8.70;99.90;8.60;99615.00;;;;4875850;28;106806;-65
2024/03/23 02:46:55;;;;;;;12.97;8.80;;;8.70;99.90;8.60;99615.00;;;;4878053;28;88606;-65
2024/03/23 02:49:21;;;;;;;12.43;8.53;;;8.70;99.90;8.60;99628.00;;;;4875760;28;108879;-66
2024/03/23 02:51:48;;;;;;;12.10;9.07;;;8.70;99.90;8.70;99630.00;;;;4877260;28;116869;-65
2024/03/23 02:54:14;;;;;;;8.83;7.10;;;8.70;99.90;8.70;99623.00;;;;4880527;28;87985;-65
2024/03/23 02:56:40;;;;;;;10.73;8.07;;;8.70;99.90;8.70;99620.00;;;;4876254;28;89588;-65
2024/03/23 02:59:05;;;;;;;12.03;8.20;;;8.80;99.90;8.70;99613.00;;;;4875118;28;93942;-66
2024/03/23 03:01:31;;;;;;;15.63;9.10;;;8.80;99.90;8.70;99619.00;;;;4881496;28;88570;-65
2024/03/23 03:03:57;;;;;;;10.90;8.00;;;8.80;99.90;8.80;99624.00;;;;4876462;28;117198;-65
2024/03/23 03:06:26;;;;;;;12.47;9.07;;;8.80;99.90;8.80;99602.00;;;;4876888;28;87890;-65
2024/03/23 03:08:52;;;;;;;15.87;8.67;;;8.90;99.90;8.80;99592.00;;;;4877360;28;101910;-65
2024/03/23 03:11:17;;;;;;;14.13;7.53;;;8.80;99.90;8.80;99594.00;;;;4879280;28;117289;-65
2024/03/23 03:13:43;;;;;;;12.20;8.10;;;8.90;99.90;8.90;99604.00;;;;4877151;28;117544;-65
2024/03/23 03:16:12;;;;;;;14.20;8.33;;;9.00;99.90;8.90;99596.00;;;;4878127;28;88388;-65
2024/03/23 03:18:40;;;;;;;10.67;7.90;;;9.00;99.90;8.90;99598.00;;;;4878462;28;87888;-65
2024/03/23 03:21:10;;;;;;;12.13;7.33;;;9.00;99.90;9.00;99597.00;;;;4877095;28;90331;-66
2024/03/23 03:23:37;;;;;;;15.10;9.33;;;9.00;99.90;9.00;99595.00;;;;4876186;28;88153;-65
2024/03/23 03:26:03;;;;;;;12.40;7.47;;;9.20;99.90;9.00;99590.00;;;;4880382;28;87793;-65
2024/03/23 03:28:30;;;;;;;13.73;9.73;;;9.10;99.90;9.00;99584.00;;;;4882127;28;88997;-65
2024/03/23 03:30:57;;;;;;;19.50;11.40;;;9.10;99.90;9.00;99576.00;;;;4880839;28;88985;-65
2024/03/23 03:33:22;;;;;;;14.47;8.87;;;9.20;99.90;9.00;99575.00;;;;4881583;28;88854;-66
2024/03/23 03:35:48;;;;;;;13.77;9.20;;;9.20;99.90;9.00;99571.00;;;;4874474;28;113438;-65
2024/03/23 03:38:14;;;;;;;12.70;7.70;;;9.10;99.90;9.00;99572.00;;;;4875595;28;106985;-65
2024/03/23 03:40:41;;;;;;;16.10;8.47;;;9.20;99.90;9.10;99578.00;;;;4877928;28;88404;-66
2024/03/23 03:43:07;;;;;;;10.37;8.10;;;9.10;99.90;9.10;99583.00;;;;4877019;28;109262;-65
2024/03/23 03:45:33;;;;;;;16.53;9.57;;;9.20;99.90;9.10;99573.00;;;;4878266;28;110358;-65
2024/03/23 03:47:59;;;;;;;19.10;8.67;;;9.60;99.90;9.20;99573.00;;;;4879869;28;109150;-66
2024/03/23 03:50:25;;;;;;;17.83;10.10;;;9.30;99.90;9.20;99570.00;;;;4876443;28;90877;-65
2024/03/23 03:52:50;;;;;;;16.17;10.10;;;9.30;99.90;9.30;99556.00;;;;4878787;28;89611;-65
2024/03/23 03:55:16;;;;;;;16.73;8.23;;;9.30;99.90;9.30;99547.00;;;;4881247;28;88113;-65
2024/03/23 03:57:42;;;;;;;12.43;9.90;;;9.40;99.90;9.30;99547.00;;;;4882787;28;89045;-65
2024/03/23 04:00:11;;;;;;;17.83;8.93;;;9.40;99.90;9.30;99534.00;;;;4874919;28;116848;-65
2024/03/23 04:02:37;;;;;;;11.10;7.77;;;9.30;99.90;9.20;99540.00;;;;4875811;28;89283;-65
2024/03/23 04:05:04;;;;;;;11.90;8.80;;;9.40;99.90;9.30;99541.00;;;;4881633;28;88560;-65
2024/03/23 04:07:29;;;;;;;13.27;8.63;;;9.40;99.90;9.30;99535.00;;;;4882788;28;87764;-64
2024/03/23 04:09:58;;;;;;;11.60;6.00;;;9.40;99.90;9.30;99537.00;;;;4877589;28;118116;-65
2024/03/23 04:12:24;;;;;;;7.97;4.60;;;9.40;99.90;9.30;99548.00;;;;4884601;28;119260;-64
2024/03/23 04:14:50;;;;;;;6.73;4.03;;;9.40;99.90;9.20;99544.00;;;;4878257;28;89156;-65
2024/03/23 04:17:16;;;;;;;9.93;3.83;;;9.40;99.90;9.20;99545.00;;;;4877315;28;108607;-64
2024/03/23 04:19:42;;;;;;;4.37;3.10;;;9.30;99.90;9.10;99532.00;;;;4880452;28;88512;-66
2024/03/23 04:22:08;;;;;;;10.33;3.43;;;9.30;99.90;9.00;99538.00;;;;4883863;28;88056;-66
2024/03/23 04:24:33;;;;;;;5.53;2.60;;;9.20;99.90;9.00;99532.00;;;;4882470;28;87923;-65
2024/03/23 04:26:59;;;;;;;3.80;1.80;;;9.10;99.90;8.90;99520.00;;;;4879274;28;107501;-65
2024/03/23 04:29:26;;;;;;;5.93;2.53;;;9.10;99.90;8.80;99518.00;;;;4876775;28;118202;-65
2024/03/23 04:31:52;;;;;;;2.53;1.50;;;9.00;99.90;8.80;99513.00;;;;4878671;28;88780;-65
2024/03/23 04:34:18;;;;;;;3.93;1.60;;;9.00;99.90;8.80;99526.00;;;;4878414;28;109724;-66
2024/03/23 04:36:44;;;;;;;6.93;1.90;;;8.90;99.90;8.70;99528.00;;;;4879948;28;94414;-65
2024/03/23 04:39:10;;;;;;;2.50;1.27;;;8.90;99.90;8.70;99526.00;;;;4879129;28;116788;-65
2024/03/23 04:41:35;;;;;;;7.67;1.87;;;8.80;99.90;8.60;99528.00;;;;4879776;28;88576;-65
2024/03/23 04:44:02;;;;;;;3.60;1.43;;;8.80;99.90;8.60;99527.00;;;;4881456;28;89024;-65
2024/03/23 04:46:27;;;;;;;0.90;0.90;;;8.70;99.90;8.60;99520.00;;;;4880260;28;109215;-65
2024/03/23 04:48:53;;;;;;;4.30;1.60;;;8.70;99.90;8.50;99500.00;;;;4882088;28;115902;-65
2024/03/23 04:51:23;;;;;;;3.60;1.00;;;8.70;99.90;8.50;99488.00;;;;4880001;28;88476;-65
2024/03/23 04:53:49;;;;;;;4.70;1.43;;;8.60;99.90;8.40;99487.00;;;;4883263;28;87990;-65
2024/03/23 04:56:18;;;;;;;2.27;1.23;;;8.60;99.90;8.40;99492.00;;;;4885843;28;87979;-65
2024/03/23 04:58:44;;;;;;;2.87;1.17;;;8.50;99.90;8.40;99487.00;;;;4881218;28;89134;-66
2024/03/23 05:01:11;;;;;;;1.23;1.13;;;8.60;99.90;8.30;99485.00;;;;4883061;28;97043;-66
2024/03/23 05:03:37;;;;;;;2.57;1.40;;;8.50;99.90;8.30;99481.00;;;;4884044;28;87895;-66
2024/03/23 05:06:05;;;;;;;3.03;1.43;;;8.50;99.90;8.30;99475.00;;;;4880390;28;87758;-67
2024/03/23 05:08:30;;;;;;;3.67;1.30;;;8.50;99.90;8.30;99470.00;;;;4885039;28;88050;-66
2024/03/23 05:10:56;;;;;;;1.47;1.37;;;8.50;99.90;8.30;99466.00;;;;4881623;28;116876;-66
2024/03/23 05:13:22;;;;;;;1.00;0.67;;;8.50;99.90;8.30;99471.00;;;;4884241;28;109966;-67
2024/03/23 05:15:54;;;;;;;6.03;1.53;;;8.40;99.90;8.40;99463.00;;;;4880486;28;108400;-66
2024/03/23 05:18:21;;;;;;;2.33;0.70;;;8.50;99.90;8.40;99454.00;;;;4864355;28;87926;-66
2024/03/23 05:20:47;;;;;;;1.70;1.30;;;8.50;99.90;8.40;99439.00;;;;4879198;28;88740;-66
2024/03/23 05:23:13;;;;;;;5.33;1.37;;;8.50;99.90;8.40;99433.00;;;;4879385;28;110492;-66
2024/03/23 05:25:38;;;;;;;2.97;1.30;;;8.50;99.90;8.40;99412.00;;;;4878166;28;88087;-66
2024/03/23 05:28:05;;;;;;;6.50;2.33;;;8.50;99.90;8.40;99360.00;;;;4883079;28;88227;-65
2024/03/23 05:30:30;;;;;;;3.27;1.37;;;8.50;99.90;8.30;99326.00;;;;4880477;28;88346;-66
2024/03/23 05:32:56;;;;;;;2.83;1.10;;;8.50;99.90;8.30;99368.00;;;;4882070;28;109926;-65
2024/03/23 05:35:22;;;;;;;12.03;1.97;;;8.40;99.90;8.20;99379.00;;;;4880770;28;88118;-65
2024/03/23 05:37:48;;;;;;;3.70;1.17;;;8.40;99.90;8.30;99394.00;;;;4880576;28;88105;-65
2024/03/23 05:40:15;;;;;;;8.50;1.27;;;8.40;99.90;8.30;99399.00;;;;4884924;28;87036;-65
2024/03/23 05:42:41;;;;;;;3.90;1.03;;;8.40;99.90;8.30;99394.00;;;;4880329;28;88268;-65
2024/03/23 05:45:07;;;;;;;2.30;1.33;;;8.40;99.90;8.30;99388.00;;;;4879806;28;87898;-65
2024/03/23 05:47:33;;;;;;;2.23;1.07;;;8.40;99.90;8.40;99380.00;;;;4882655;28;89678;-65
2024/03/23 05:49:59;;;;;;;11.23;1.57;;;8.40;99.90;8.40;99368.00;;;;4878315;28;88472;-65
2024/03/23 05:52:25;;;;;;;4.47;1.37;;;8.50;99.90;8.40;99358.00;;;;4877766;28;109297;-65
2024/03/23 05:54:51;;;;;;;1.40;1.27;;;8.50;99.90;8.40;99351.00;;;;4878601;28;87893;-66
2024/03/23 05:57:18;;;;;;;1.77;1.03;;;8.50;99.90;8.40;99340.00;;;;4878878;28;106551;-65
2024/03/23 05:59:44;;;;;;;4.27;1.43;;;8.50;99.90;8.40;99333.00;;;;4876503;28;88100;-66
2024/03/23 06:02:10;;;;;;;4.60;1.37;;;7.60;99.90;8.40;99333.00;;;;4879508;28;100597;-65
2024/03/23 06:04:36;;;;;;;1.20;1.00;;;8.50;99.90;8.40;99339.00;;;;4879172;28;87451;-65
2024/03/23 06:07:02;;;;;;;5.50;1.30;;;8.90;99.90;8.40;99326.00;;;;4875459;28;89088;-65
2024/03/23 06:09:27;;;;;;;6.37;1.70;;;8.50;99.90;8.40;99319.00;;;;4874936;28;117719;-64
2024/03/23 06:11:53;;;;;;;6.40;1.60;;;8.50;99.90;8.40;99311.00;;;;4873983;28;111401;-65
2024/03/23 06:14:19;;;;;;;2.20;1.73;;;8.50;99.90;8.40;99310.00;;;;4879088;28;106843;-66
2024/03/23 06:16:44;;;;;;;2.10;1.27;;;8.50;99.90;8.40;99319.00;;;;4876573;28;116963;-65
2024/03/23 06:19:10;;;;;;;7.10;3.70;;;8.50;99.90;8.40;99311.00;;;;4878330;28;88932;-65
2024/03/23 06:21:36;;;;;;;5.57;2.77;;;8.50;99.90;8.30;99289.00;;;;4877547;28;89732;-65
2024/03/23 06:24:01;;;;;;;5.83;2.60;;;8.50;99.90;8.30;99283.00;;;;4874872;28;107961;-65
2024/03/23 06:26:27;;;;;;;6.70;1.43;;;8.40;99.90;8.30;99276.00;;;;4877415;28;90792;-64
2024/03/23 06:28:53;;;;;;;5.73;1.23;;;8.40;99.90;8.30;99274.00;;;;4883207;28;117614;-64
2024/03/23 06:31:19;;;;;;;2.77;1.17;;;8.40;99.90;8.30;99264.00;;;;4876429;28;87871;-64
2024/03/23 06:33:48;;;;;;;7.07;1.53;;;8.40;99.90;8.30;99273.00;;;;4875538;28;110280;-64
2024/03/23 06:36:13;;;;;;;2.40;1.30;;;8.40;99.90;8.30;99280.00;;;;4876103;28;90149;-64
2024/03/23 06:38:39;;;;;;;12.00;1.63;;;8.40;99.90;8.30;99289.00;;;;4878672;28;117320;-64
2024/03/23 06:41:05;;;;;;;3.17;1.37;;;8.40;99.90;8.40;99287.00;;;;4878711;28;110861;-64
2024/03/23 06:43:31;;;;;;;1.50;1.13;;;8.50;99.90;8.40;99300.00;;;;4880621;28;90712;-64
2024/03/23 06:45:57;;;;;;;3.87;1.00;;;8.40;99.90;8.40;99282.00;;;;4878962;28;117093;-63
2024/03/23 06:48:23;;;;;;;2.77;1.40;;;8.50;99.90;8.50;99274.00;;;;4876740;28;88437;-64
2024/03/23 06:50:48;;;;;;;7.87;1.13;;;8.60;99.90;8.50;99266.00;;;;4876790;28;87774;-63
2024/03/23 06:53:15;;;;;;;8.60;1.63;;;8.60;99.90;8.50;99252.00;;;;4880382;28;108928;-64
2024/03/23 06:55:41;;;;;;;2.30;1.83;;;8.60;99.90;8.50;99250.00;;;;4874341;28;88220;-64
2024/03/23 06:58:07;;;;;;;3.13;1.43;;;8.60;99.90;8.50;99240.00;;;;4874243;28;90245;-64
2024/03/23 07:00:33;;;;;;;5.27;1.73;;;8.60;99.90;8.50;99235.00;;;;4880191;28;88898;-64
2024/03/23 07:03:00;;;;;;;2.20;1.33;;;8.60;99.90;8.50;99230.00;;;;4877286;28;88125;-64
2024/03/23 07:05:26;;;;;;;3.33;1.73;;;8.70;99.90;8.60;99241.00;;;;4877923;28;95426;-64
2024/03/23 07:07:51;;;;;;;6.30;2.23;;;8.70;99.90;8.60;99249.00;;;;4876475;28;106803;-64
2024/03/23 07:10:17;;;;;;;2.97;1.73;;;8.70;99.90;8.60;99255.00;;;;4876953;28;109877;-65
2024/03/23 07:12:43;;;;;;;7.07;1.97;;;8.70;99.90;8.60;99263.00;;;;4874228;28;87883;-64
2024/03/23 07:15:09;;;;;;;4.57;2.00;;;8.70;99.90;8.60;99269.00;;;;4875352;28;118961;-64
2024/03/23 07:17:35;;;;;;;2.33;1.27;;;8.70;99.90;8.60;99241.00;;;;4878039;28;87275;-64
2024/03/23 07:20:04;;;;;;;2.67;2.20;;;8.70;99.90;8.60;99226.00;;;;4874718;28;88030;-64
2024/03/23 07:22:31;;;;;;;5.87;2.17;;;8.70;99.90;8.60;99226.00;;;;4876052;28;88227;-65
2024/03/23 07:24:57;;;;;;;7.60;2.53;;;8.70;99.90;8.50;99227.00;;;;4878046;28;88825;-66
2024/03/23 07:27:23;;;;;;;2.57;2.13;;;8.70;99.90;8.50;99216.00;;;;4876743;28;116823;-64
2024/03/23 07:29:49;;;;;;;6.27;2.60;;;8.70;99.90;8.40;99215.00;;;;4872467;28;87824;-63
2024/03/23 07:32:15;;;;;;;9.67;2.40;;;8.60;99.90;8.30;99208.00;;;;4872798;28;110602;-64
2024/03/23 07:34:43;;;;;;;8.67;2.30;;;8.50;99.90;8.30;99196.00;;;;4875291;28;88751;-63
2024/03/23 07:37:09;;;;;;;6.87;2.50;;;8.40;99.90;8.20;99208.00;;;;4888271;28;89920;-63
2024/03/23 07:39:34;;;;;;;2.83;2.63;;;8.30;99.90;8.20;99219.00;;;;4872468;28;108417;-63
2024/03/23 07:42:00;;;;;;;5.03;3.13;;;8.30;99.90;8.10;99218.00;;;;4874942;28;107704;-63
2024/03/23 07:44:25;;;;;;;8.33;3.20;;;8.30;99.90;8.10;99211.00;;;;4871394;28;116949;-64
2024/03/23 07:46:51;;;;;;;5.43;3.00;;;8.20;99.90;8.10;99193.00;;;;4872953;28;117598;-64
2024/03/23 07:49:17;;;;;;;5.30;2.73;;;8.20;99.90;8.00;99160.00;;;;4875072;28;110803;-64
2024/03/23 07:51:44;;;;;;;4.43;2.50;;;8.20;99.90;8.00;99140.00;;;;4872283;28;88318;-65
2024/03/23 07:54:10;;;;;;;5.20;2.87;;;8.20;99.90;8.00;99144.00;;;;4875625;28;89186;-64
2024/03/23 07:56:36;;;;;;;4.73;2.53;;;8.10;99.90;8.10;99150.00;;;;4871847;28;110175;-65
2024/03/23 07:59:03;;;;;;;6.07;2.73;;;8.10;99.90;8.10;99119.00;;;;4872334;28;110646;-65
2024/03/23 08:01:29;;;;;;;8.63;4.07;;;8.20;99.90;8.20;99109.00;;;;4875414;28;88039;-62
2024/03/23 08:03:54;;;;;;;15.47;5.03;;;8.20;99.90;8.20;99099.00;;;;4873095;28;118166;-63
2024/03/23 08:06:22;;;;;;;9.73;4.07;;;8.20;99.90;8.30;99094.00;;;;4871483;28;117795;-63
2024/03/23 08:08:59;;;;;;;10.47;4.00;;;8.30;99.90;8.40;99089.00;;;;4875585;28;88220;-65
2024/03/23 08:11:26;;;;;;;13.83;4.50;;;8.40;99.90;8.40;99087.00;;;;4877934;28;88076;-63
2024/03/23 08:13:52;;;;;;;5.20;3.43;;;8.40;99.90;8.50;99073.00;;;;4873023;28;88898;-64
2024/03/23 08:16:17;;;;;;;6.43;3.40;;;8.60;99.90;8.50;99087.00;;;;4876675;28;89269;-64
2024/03/23 08:18:43;;;;;;;8.73;3.07;;;9.10;99.90;8.50;99086.00;;;;4874507;28;87834;-63
2024/03/23 08:21:09;;;;;;;9.07;3.80;;;8.60;99.90;8.40;99076.00;;;;4878525;28;88123;-64
2024/03/23 08:23:38;;;;;;;7.30;4.00;;;8.60;99.90;8.50;99062.00;;;;4871653;28;117424;-64
2024/03/23 08:26:05;;;;;;;7.70;4.07;;;8.50;99.90;8.50;99049.00;;;;4873108;28;88395;-64
2024/03/23 08:28:32;;;;;;;6.50;3.90;;;8.60;99.90;8.50;99041.00;;;;4875263;28;87847;-65
2024/03/23 08:31:03;;;;;;;5.27;3.17;;;8.60;99.90;8.60;99040.00;;;;4878907;28;92077;-63
2024/03/23 08:33:30;;;;;;;11.60;3.53;;;8.70;99.90;8.80;99029.00;;;;4876066;28;89141;-63
2024/03/23 08:36:00;;;;;;;17.77;3.77;;;8.80;99.90;8.90;99031.00;;;;4874123;28;88833;-63
2024/03/23 08:38:27;;;;;;;4.83;2.60;;;9.00;99.90;9.00;99014.00;;;;4873655;28;103525;-63
2024/03/23 08:41:07;;;;;;;3.53;3.23;;;9.10;99.90;9.10;99024.00;;;;4876863;28;87867;-63
2024/03/23 08:43:39;;;;;;;5.03;3.50;;;9.10;99.90;9.20;99005.00;;;;4878044;28;87688;-64
2024/03/23 08:46:09;;;;;;;6.43;3.23;;;9.20;99.90;9.20;98998.00;;;;4877745;28;88468;-64
2024/03/23 08:48:38;;;;;;;7.20;3.90;;;9.20;99.90;9.20;98998.00;;;;4876440;28;98120;-64
2024/03/23 08:51:06;;;;;;;8.10;3.77;;;9.20;99.90;9.10;99007.00;;;;4878230;28;88412;-64
2024/03/23 08:53:32;;;;;;;6.97;2.73;;;9.30;99.90;9.10;99019.00;;;;4876150;28;108536;-64
2024/03/23 08:56:00;;;;;;;9.50;3.87;;;9.20;99.90;9.10;99022.00;;;;4877453;28;97094;-65
2024/03/23 08:58:27;;;;;;;2.90;2.57;;;9.10;99.90;9.10;99023.00;;;;4871431;28;87955;-64
2024/03/23 09:00:57;;;;;;;3.63;2.63;;;9.20;99.90;9.10;99028.00;;;;4873244;28;87888;-64
2024/03/23 09:03:24;;;;;;;5.23;3.77;;;9.20;99.90;9.20;99023.00;;;;4872231;28;88858;-64
2024/03/23 09:05:51;;;;;;;7.17;3.47;;;9.20;99.90;9.20;99029.00;;;;4873287;28;89419;-63
2024/03/23 09:08:16;;;;;;;7.47;3.77;;;9.30;99.90;9.20;99017.00;;;;4879084;28;87914;-64
2024/03/23 09:10:43;;;;;;;9.83;3.93;;;9.30;99.90;9.20;99023.00;;;;4878552;28;108920;-65
2024/03/23 09:13:09;;;;;;;9.20;4.33;;;9.30;99.90;9.20;99007.00;;;;4874694;28;89095;-65
2024/03/23 09:15:36;;;;;;;11.37;4.73;;;9.30;99.90;9.20;99010.00;;;;4875901;28;118092;-65
2024/03/23 09:18:03;;;;;;;4.27;3.63;;;9.30;99.90;9.20;99006.00;;;;4878142;28;101031;-64
2024/03/23 09:20:29;;;;;;;12.67;3.60;;;9.30;99.90;9.20;99001.00;;;;4878754;28;86907;-64
2024/03/23 09:22:54;;;;;;;4.67;3.80;;;9.30;99.90;9.20;99002.00;;;;4883886;28;117968;-63
2024/03/23 09:25:20;;;;;;;7.50;4.10;;;9.30;99.90;9.10;99015.00;;;;4877658;28;116911;-65
2024/03/23 09:27:47;;;;;;;6.20;4.00;;;9.30;99.90;9.10;99010.00;;;;4872565;28;110162;-67
2024/03/23 09:30:13;;;;;;;10.73;5.37;;;9.20;99.90;9.10;99020.00;;;;4878703;28;88118;-65
2024/03/23 09:32:42;;;;;;;6.30;4.83;;;9.20;99.90;9.10;99015.00;;;;4876264;28;89056;-65
2024/03/23 09:35:07;;;;;;;11.13;5.17;;;9.20;99.90;9.10;99039.00;;;;4878776;28;102182;-64
2024/03/23 09:37:33;;;;;;;5.97;3.93;;;9.20;99.90;9.10;99076.00;;;;4879960;28;110491;-64
2024/03/23 09:39:59;;;;;;;7.67;4.47;;;9.20;99.90;9.10;99088.00;;;;4878461;28;107408;-63
2024/03/23 09:42:24;;;;;;;8.33;3.43;;;9.20;99.90;9.00;99122.00;;;;4874444;28;117844;-64
2024/03/23 09:44:51;;;;;;;5.77;2.63;;;9.10;99.90;8.80;99156.00;;;;4876084;28;117309;-65
2024/03/23 09:47:18;;;;;;;4.77;2.80;;;9.00;99.90;8.60;99142.00;;;;4874630;28;89406;-67
2024/03/23 09:49:44;;;;;;;1.83;1.63;;;8.80;99.90;8.40;99113.00;;;;4877728;28;95545;-66
2024/03/23 09:52:10;;;;;;;3.17;2.27;;;8.70;99.90;8.10;99126.00;;;;4874802;28;119560;-66
2024/03/23 09:54:36;;;;;;;2.07;1.87;;;8.40;99.90;8.00;99147.00;;;;4880526;28;108705;-65
2024/03/23 09:57:02;;;;;;;3.37;1.40;;;8.20;99.90;7.90;99143.00;;;;4880462;28;110390;-65
2024/03/23 09:59:29;;;;;;;3.53;1.67;;;8.10;99.90;7.70;99132.00;;;;4869407;28;87947;-65
2024/03/23 10:01:55;;;;;;;7.43;1.47;;;7.90;99.90;7.60;99164.00;;;;4881281;28;117433;-64
2024/03/23 10:04:41;;;;;;;3.50;1.10;;;7.80;99.90;7.40;99148.00;;;;4874232;28;110275;-65
2024/03/23 10:07:23;;;;;;;3.67;2.27;;;7.70;99.90;7.40;99165.00;;;;4874195;28;87717;-65
2024/03/23 10:09:50;;;;;;;5.60;2.57;;;7.60;99.90;7.40;99190.00;;;;4879035;28;96813;-65
2024/03/23 10:12:18;;;;;;;1.67;1.33;;;7.50;99.90;7.30;99218.00;;;;4875594;28;87826;-64
2024/03/23 10:14:45;;;;;;;1.80;1.27;;;7.40;99.90;7.10;99230.00;;;;4873600;28;88142;-65
2024/03/23 10:17:24;;;;;;;3.30;1.27;;;7.30;99.90;7.00;99229.00;;;;4874021;28;88792;-65
2024/03/23 10:19:52;;;;;;;1.90;1.40;;;7.20;99.90;6.80;99243.00;;;;4879167;28;88141;-64
2024/03/23 10:22:24;;;;;;;2.17;1.40;;;7.00;99.90;6.70;99250.00;;;;4875890;28;88722;-65
2024/03/23 10:24:50;;;;;;;1.90;1.27;;;6.90;99.90;6.60;99266.00;;;;4873542;28;88445;-64
2024/03/23 10:27:18;;;;;;;4.13;0.90;;;6.80;99.90;6.50;99259.00;;;;4865258;28;104311;-64
2024/03/23 10:30:12;;;;;;;2.47;0.77;;;6.70;99.90;6.50;99262.00;;;;4877611;28;87876;-64
2024/03/23 10:32:38;;;;;;;1.27;0.83;;;6.70;99.90;6.40;99281.00;;;;4875900;28;88355;-66
2024/03/23 10:35:23;;;;;;;0.63;0.40;;;6.90;99.90;6.20;99304.00;;;;4878051;28;88303;-65
2024/03/23 10:37:51;;;;;;;0.33;0.33;;;6.50;99.90;6.20;99304.00;;;;4875990;28;87816;-64
2024/03/23 10:40:18;;;;;;;0.67;0.53;;;6.40;99.90;6.10;99324.00;;;;4875895;28;107007;-64
2024/03/23 10:42:44;;;;;;;0.33;0.30;;;6.40;99.90;6.10;99326.00;;;;4880967;28;89851;-64
2024/03/23 10:45:10;;;;;;;0.10;0.10;;;6.30;99.90;5.90;99348.00;;;;4877685;28;91516;-63
2024/03/23 10:47:37;;;;;;;0.40;0.30;;;6.20;99.90;5.80;99352.00;;;;4877805;28;87653;-63
2024/03/23 10:50:05;;;;;;;0.67;0.27;;;6.00;99.90;5.70;99358.00;;;;4878012;28;88132;-63
2024/03/23 10:52:34;;;;;;;0.20;0.20;;;6.00;99.90;5.70;99370.00;;;;4878594;28;87909;-64
2024/03/23 10:55:04;;;;;;;0.43;0.43;;;5.90;99.90;5.70;99377.00;;;;4878849;28;88464;-63
2024/03/23 10:57:40;;;;;;;0.67;0.60;;;5.80;99.90;5.70;99386.00;;;;4875060;28;87844;-63
2024/03/23 11:00:07;;;;;;;0.17;0.17;;;5.90;99.90;5.80;99397.00;;;;4873454;28;87431;-63